Time;durP1;ratioP1;P1;durP2;ratioP2;P2;SDS_P1;SDS_P2;PMS_P1;PMS_P2;Temp;Humidity;BMP_temperature;BMP_pressure;BME280_temperature;BME280_humidity;BME280_pressure;Samples;Min_cycle;Max_cycle;Signal;HPM_P1;HPM_P2
2021/04/26 00:01:49;;;;;;;6.35;3.92;;;;;;;6.50;46.88;95942.53;5067693;28;20343;-50
2021/04/26 00:04:27;;;;;;;7.57;3.95;;;;;;;6.70;45.17;95945.81;5108242;27;20337;-48
2021/04/26 00:07:04;;;;;;;5.65;3.80;;;;;;;6.33;46.92;95948.53;5106194;27;20052;-49
2021/04/26 00:09:42;;;;;;;6.70;3.85;;;;;;;6.30;46.44;95940.28;5068340;27;20336;-47
2021/04/26 00:12:19;;;;;;;6.55;4.15;;;;;;;6.18;46.74;95940.84;5128816;27;20120;-48
2021/04/26 00:14:57;;;;;;;6.63;4.35;;;;;;;6.19;47.57;95929.00;5068452;28;20348;-49
2021/04/26 00:17:35;;;;;;;7.38;4.35;;;;;;;6.10;47.76;95928.13;5068388;27;20709;-47
2021/04/26 00:20:16;;;;;;;5.95;3.83;;;;;;;6.22;47.51;95925.72;5129570;27;20900;-47
2021/04/26 00:22:54;;;;;;;6.38;4.40;;;;;;;6.32;47.93;95911.25;5082980;27;20372;-47
2021/04/26 00:25:32;;;;;;;7.55;3.80;;;;;;;6.31;47.17;95904.28;5068361;28;20348;-48
2021/04/26 00:28:10;;;;;;;6.60;4.38;;;;;;;5.95;48.05;95899.75;5088489;27;20366;-46
2021/04/26 00:30:47;;;;;;;8.23;3.97;;;;;;;6.12;47.67;95895.59;5108941;27;20171;-48
2021/04/26 00:33:24;;;;;;;7.38;3.75;;;;;;;5.77;50.06;95888.00;5067760;28;20375;-49
2021/04/26 00:36:03;;;;;;;6.53;4.05;;;;;;;5.79;49.74;95888.50;5068362;28;20356;-50
2021/04/26 00:38:41;;;;;;;6.82;4.55;;;;;;;5.65;50.50;95876.22;5108075;27;20338;-48
2021/04/26 00:41:07;;;;;;;7.15;4.57;;;;;;;5.83;49.30;95870.69;5089023;28;20076;-49
2021/04/26 00:43:45;;;;;;;8.18;5.00;;;;;;;5.61;50.77;95879.50;5056927;28;20379;-51
2021/04/26 00:46:23;;;;;;;7.97;4.45;;;;;;;5.57;49.76;95857.03;5068345;27;20455;-49
2021/04/26 00:49:00;;;;;;;8.25;4.22;;;;;;;5.57;50.61;95856.25;5129533;27;20112;-49
2021/04/26 00:51:37;;;;;;;8.68;4.45;;;;;;;5.61;50.39;95858.03;5066455;28;20370;-48
2021/04/26 00:54:16;;;;;;;10.20;4.60;;;;;;;5.33;51.55;95851.09;5108961;27;20383;-48
2021/04/26 00:56:54;;;;;;;8.07;5.35;;;;;;;5.35;51.55;95848.94;5068295;28;20355;-48
2021/04/26 00:59:33;;;;;;;7.38;4.82;;;;;;;5.32;50.87;95844.94;5125521;27;20113;-49
2021/04/26 01:02:10;;;;;;;8.75;4.45;;;;;;;5.27;50.92;95844.28;5068120;28;20466;-48
2021/04/26 01:04:54;;;;;;;9.60;4.75;;;;;;;5.35;51.03;95843.56;5109757;27;20671;-48
2021/04/26 01:07:34;;;;;;;8.65;4.80;;;;;;;5.26;51.27;95837.31;5068618;28;20685;-48
2021/04/26 01:10:16;;;;;;;9.25;4.50;;;;;;;5.10;52.58;95834.16;5068264;28;20356;-49
2021/04/26 01:13:08;;;;;;;7.43;4.40;;;;;;;5.31;51.17;95846.06;5063964;28;20367;-50
2021/04/26 01:16:02;;;;;;;7.60;4.53;;;;;;;5.09;53.38;95837.94;5068500;28;20359;-48
2021/04/26 01:19:00;;;;;;;7.05;5.18;;;;;;;5.16;52.27;95832.94;5129474;27;20345;-48
2021/04/26 01:21:57;;;;;;;6.68;4.28;;;;;;;4.97;53.59;95832.28;5061841;28;20380;-47
2021/04/26 01:24:40;;;;;;;6.95;4.13;;;;;;;4.85;54.04;95833.56;5108878;27;20349;-52
2021/04/26 01:27:32;;;;;;;8.75;4.35;;;;;;;4.84;54.22;95828.50;5068355;27;20355;-47
2021/04/26 01:30:16;;;;;;;9.73;4.65;;;;;;;5.01;54.11;95838.66;5059586;28;20372;-52
2021/04/26 01:33:08;;;;;;;11.13;5.28;;;;;;;4.92;53.94;95828.59;5047781;28;20060;-50
2021/04/26 01:38:17;;;;;;;8.23;5.13;;;;;;;4.81;54.27;95818.38;5107537;27;20372;-48
2021/04/26 01:40:58;;;;;;;8.57;4.45;;;;;;;4.95;53.65;95821.06;5068300;28;20355;-47
2021/04/26 01:43:37;;;;;;;8.60;4.60;;;;;;;4.87;55.17;95819.84;5058190;28;20368;-46
2021/04/26 01:46:15;;;;;;;6.95;4.80;;;;;;;4.58;55.75;95814.78;5068458;28;20348;-46
2021/04/26 01:48:56;;;;;;;8.27;4.60;;;;;;;4.63;56.11;95803.97;5068620;27;20348;-46
2021/04/26 01:51:35;;;;;;;10.05;5.13;;;;;;;4.59;54.84;95806.47;5067652;28;20351;-47
2021/04/26 01:54:14;;;;;;;7.32;4.97;;;;;;;4.51;54.86;95809.03;5053059;28;20373;-47
2021/04/26 01:56:52;;;;;;;8.13;4.90;;;;;;;4.66;55.30;95800.72;5129270;27;20355;-48
2021/04/26 01:59:33;;;;;;;8.65;5.32;;;;;;;4.37;56.11;95798.28;5068253;27;20344;-49
2021/04/26 02:02:11;;;;;;;6.22;4.60;;;;;;;4.42;56.41;95790.19;5110332;27;20372;-46
2021/04/26 02:04:51;;;;;;;8.95;5.57;;;;;;;4.18;56.52;95784.97;5068543;28;20359;-45
2021/04/26 02:07:43;;;;;;;6.50;4.95;;;;;;;4.22;56.48;95785.97;5068491;28;20347;-47
2021/04/26 02:10:33;;;;;;;8.35;5.30;;;;;;;4.20;56.79;95793.50;5047799;28;20422;-48
2021/04/26 02:15:20;;;;;;;11.13;4.88;;;;;;;4.52;57.19;95792.66;5068288;27;20561;-47
2021/04/26 02:17:58;;;;;;;9.63;4.72;;;;;;;4.21;57.59;95795.88;5108904;27;20342;-45
2021/04/26 02:20:36;;;;;;;7.97;5.15;;;;;;;4.48;56.85;95786.28;5064602;28;20372;-46
2021/04/26 02:23:15;;;;;;;8.15;5.05;;;;;;;4.49;57.54;95795.16;5128724;27;20352;-45
2021/04/26 02:25:52;;;;;;;6.82;4.95;;;;;;;4.31;58.32;95792.22;5068489;27;20344;-46
2021/04/26 02:28:40;;;;;;;10.18;5.07;;;;;;;4.23;59.11;95798.28;5067086;28;20856;-46
2021/04/26 02:31:23;;;;;;;8.25;5.38;;;;;;;4.07;59.46;95799.63;5068313;28;20351;-49
2021/04/26 02:34:26;;;;;;;10.35;5.43;;;;;;;4.21;58.73;95805.81;5068307;28;20371;-48
2021/04/26 02:37:11;;;;;;;10.15;6.03;;;;;;;4.14;58.47;95800.03;5068356;28;20348;-50
2021/04/26 02:39:49;;;;;;;8.18;5.43;;;;;;;4.36;58.38;95802.88;5062180;27;20459;-51
2021/04/26 02:42:27;;;;;;;8.40;4.60;;;;;;;4.36;58.65;95796.72;5067912;28;20662;-50
2021/04/26 02:44:56;;;;;;;8.15;5.28;;;;;;;3.88;61.13;95794.31;5047739;28;20378;-50
2021/04/26 02:47:35;;;;;;;8.90;5.22;;;;;;;3.83;61.09;95789.81;5129485;27;20671;-48
2021/04/26 02:50:25;;;;;;;8.73;5.50;;;;;;;3.95;60.69;95776.00;5068398;28;20352;-48
2021/04/26 02:53:03;;;;;;;9.20;6.13;;;;;;;3.90;60.20;95773.38;5039460;28;20056;-50
2021/04/26 02:58:13;;;;;;;7.38;4.97;;;;;;;3.92;60.99;95763.97;5068343;28;20367;-47
2021/04/26 03:00:52;;;;;;;6.55;5.13;;;;;;;4.24;59.16;95767.72;5062212;28;20380;-47
2021/04/26 03:03:42;;;;;;;10.00;5.70;;;;;;;3.93;61.23;95762.09;5067306;28;20706;-47
2021/04/26 03:06:23;;;;;;;8.50;5.05;;;;;;;3.81;60.63;95754.56;5068358;28;20348;-50
2021/04/26 03:09:11;;;;;;;8.38;5.07;;;;;;;3.83;61.41;95754.25;5067765;28;20056;-47
2021/04/26 03:11:51;;;;;;;9.88;5.22;;;;;;;4.21;59.86;95755.72;5048769;27;20368;-46
2021/04/26 03:14:30;;;;;;;8.13;5.00;;;;;;;3.96;60.45;95748.13;5132498;27;20717;-49
2021/04/26 03:17:10;;;;;;;8.20;5.38;;;;;;;3.76;61.04;95741.25;5068246;28;20366;-51
2021/04/26 03:19:51;;;;;;;9.35;5.22;;;;;;;3.96;59.75;95743.59;5068434;28;20355;-48
2021/04/26 03:22:28;;;;;;;10.73;5.40;;;;;;;3.97;59.71;95745.16;5107001;27;20785;-46
2021/04/26 03:24:56;;;;;;;7.40;5.80;;;;;;;3.88;59.96;95738.91;5087221;28;20656;-46
2021/04/26 03:27:23;;;;;;;7.30;5.20;;;;;;;3.71;61.35;95733.31;5087049;28;20041;-48
2021/04/26 03:29:52;;;;;;;10.65;5.22;;;;;;;3.80;60.80;95731.53;5088197;28;20489;-47
2021/04/26 03:32:22;;;;;;;8.18;5.47;;;;;;;3.57;60.92;95727.91;5086875;28;20139;-48
2021/04/26 03:35:00;;;;;;;8.65;5.53;;;;;;;3.70;61.27;95737.84;5072125;28;20464;-46
2021/04/26 03:37:32;;;;;;;8.02;4.85;;;;;;;3.73;60.77;95737.25;5098301;28;20161;-47
2021/04/26 03:40:10;;;;;;;8.18;5.10;;;;;;;3.66;61.21;95714.66;5107359;27;20366;-48
2021/04/26 03:42:49;;;;;;;7.68;5.03;;;;;;;3.69;60.84;95722.09;5066246;28;20364;-51
2021/04/26 03:45:28;;;;;;;8.48;5.15;;;;;;;3.69;61.05;95720.22;5068242;27;20359;-50
2021/04/26 03:48:29;;;;;;;9.13;5.20;;;;;;;3.58;61.19;95720.69;5065726;28;20076;-50
2021/04/26 03:51:06;;;;;;;7.93;5.40;;;;;;;3.51;61.30;95721.84;5062536;28;20068;-49
2021/04/26 03:53:59;;;;;;;12.70;7.60;;;;;;;3.67;61.35;95713.56;5027048;28;20085;-47
2021/04/26 03:59:11;;;;;;;8.35;5.60;;;;;;;3.60;61.56;95716.63;5068327;28;20355;-48
2021/04/26 04:01:49;;;;;;;8.13;5.20;;;;;;;3.45;61.24;95715.00;5091290;27;20851;-49
2021/04/26 04:04:29;;;;;;;8.75;5.50;;;;;;;3.54;60.56;95717.00;5068392;28;20702;-50
2021/04/26 04:07:26;;;;;;;8.60;5.78;;;;;;;3.42;60.74;95712.91;5108866;27;20884;-48
2021/04/26 04:10:23;;;;;;;9.32;6.07;;;;;;;3.55;60.01;95713.25;5109267;27;20318;-47
2021/04/26 04:13:12;;;;;;;9.75;5.70;;;;;;;3.55;61.79;95707.91;5055627;28;20067;-48
2021/04/26 04:16:22;;;;;;;11.38;6.43;;;;;;;3.38;61.72;95706.56;5096927;28;20504;-49
2021/04/26 04:19:01;;;;;;;12.57;6.40;;;;;;;3.37;60.85;95696.91;5068494;28;20348;-47
2021/04/26 04:21:43;;;;;;;12.60;6.00;;;;;;;3.33;61.18;95693.25;5102047;27;20381;-49
2021/04/26 04:24:21;;;;;;;8.05;5.97;;;;;;;3.39;60.93;95688.63;5068227;28;20348;-48
2021/04/26 04:27:00;;;;;;;10.48;6.43;;;;;;;3.41;59.93;95692.59;5068264;27;20348;-48
2021/04/26 04:29:38;;;;;;;7.70;5.57;;;;;;;3.17;61.31;95689.22;5068370;28;20875;-47
2021/04/26 04:32:28;;;;;;;12.32;6.75;;;;;;;3.22;61.57;95697.19;5047862;28;20057;-46
2021/04/26 04:35:25;;;;;;;10.65;6.72;;;;;;;3.22;61.38;95708.66;5068171;28;20375;-52
2021/04/26 04:38:21;;;;;;;8.70;6.18;;;;;;;3.28;62.05;95712.84;5108830;27;20346;-49
2021/04/26 04:41:16;;;;;;;8.57;6.07;;;;;;;3.16;61.55;95717.06;5048685;28;20730;-46
2021/04/26 04:43:55;;;;;;;10.68;6.53;;;;;;;3.28;61.57;95715.53;5055255;28;20376;-47
2021/04/26 04:46:34;;;;;;;8.85;6.40;;;;;;;3.56;60.67;95717.50;5068554;28;20358;-49
2021/04/26 04:49:22;;;;;;;9.95;6.20;;;;;;;3.27;60.43;95713.13;5108946;27;20373;-49
2021/04/26 04:52:00;;;;;;;8.30;6.63;;;;;;;3.56;61.10;95723.66;5066407;28;20705;-47
2021/04/26 04:56:27;;;;;;;9.00;6.35;;;;;;;3.76;60.41;95725.19;5111359;27;20355;-46
2021/04/26 04:59:07;;;;;;;7.82;5.75;;;;;;;3.72;61.03;95724.19;5105222;27;20337;-49
2021/04/26 05:01:48;;;;;;;10.32;6.13;;;;;;;3.88;60.58;95720.16;5050529;28;20383;-47
2021/04/26 05:04:45;;;;;;;10.40;6.53;;;;;;;4.05;60.74;95721.47;5104418;27;20325;-47
2021/04/26 05:07:40;;;;;;;8.57;6.10;;;;;;;3.70;60.31;95715.66;5123524;27;20838;-48
2021/04/26 05:10:30;;;;;;;9.18;6.43;;;;;;;4.00;59.45;95725.06;5068689;28;20059;-47
2021/04/26 05:13:26;;;;;;;8.70;6.22;;;;;;;3.64;60.50;95722.16;5059691;28;20375;-47
2021/04/26 05:16:10;;;;;;;13.27;7.75;;;;;;;4.28;59.39;95723.19;5108860;27;20873;-52
2021/04/26 05:18:48;;;;;;;10.13;6.20;;;;;;;3.90;59.05;95709.97;5068342;28;20705;-49
2021/04/26 05:21:26;;;;;;;9.38;6.10;;;;;;;4.07;58.51;95712.06;5086898;28;20175;-49
2021/04/26 05:24:05;;;;;;;11.45;6.10;;;;;;;4.00;58.86;95709.00;5068531;27;20348;-49
2021/04/26 05:26:43;;;;;;;11.63;6.25;;;;;;;4.19;58.18;95712.38;5068599;28;20351;-50
2021/04/26 05:29:24;;;;;;;8.20;5.30;;;;;;;4.73;57.04;95715.34;5068785;28;20367;-49
2021/04/26 05:32:04;;;;;;;10.18;6.00;;;;;;;4.31;58.35;95717.22;5101719;27;20358;-50
2021/04/26 05:34:55;;;;;;;9.95;5.60;;;;;;;4.40;56.80;95712.78;5068583;28;20375;-51
2021/04/26 05:37:33;;;;;;;10.02;6.10;;;;;;;4.51;57.21;95712.56;5068690;28;20352;-48
2021/04/26 05:40:12;;;;;;;9.23;6.03;;;;;;;4.61;56.87;95717.72;5120874;27;20136;-48
2021/04/26 05:42:51;;;;;;;9.60;6.40;;;;;;;4.34;58.23;95711.28;5104979;27;20365;-51
2021/04/26 05:45:30;;;;;;;9.75;6.07;;;;;;;4.33;57.20;95708.91;5105117;27;20372;-50
2021/04/26 05:48:25;;;;;;;9.95;5.78;;;;;;;4.43;57.62;95709.50;5129372;27;20359;-51
2021/04/26 05:51:03;;;;;;;8.88;5.80;;;;;;;4.56;56.99;95704.44;5130058;27;20577;-48
2021/04/26 05:53:40;;;;;;;10.10;6.10;;;;;;;4.51;57.68;95707.22;5047161;28;20379;-49
2021/04/26 05:56:17;;;;;;;9.13;6.00;;;;;;;4.66;56.13;95706.91;5129337;27;20108;-48
2021/04/26 05:58:55;;;;;;;13.15;6.30;;;;;;;4.61;56.05;95709.69;5028673;28;20350;-46
2021/04/26 06:01:32;;;;;;;13.00;6.22;;;;;;;4.98;55.79;95702.50;5080846;28;20123;-50
2021/04/26 06:03:58;;;;;;;9.23;5.97;;;;;;;4.85;55.79;95707.59;5047820;28;20041;-51
2021/04/26 06:06:27;;;;;;;10.90;6.03;;;;;;;4.81;56.05;95709.28;5058315;28;20098;-51
2021/04/26 06:08:54;;;;;;;10.98;6.15;;;;;;;4.91;56.45;95706.38;5067843;28;20139;-52
2021/04/26 06:11:20;;;;;;;13.18;5.90;;;;;;;4.99;56.14;95714.81;5049998;28;20052;-49
2021/04/26 06:13:46;;;;;;;12.25;6.45;;;;;;;5.23;55.67;95714.53;5057865;28;20052;-48
2021/04/26 06:16:14;;;;;;;11.95;6.45;;;;;;;5.08;54.88;95718.34;5067757;28;20044;-49
2021/04/26 06:18:40;;;;;;;13.60;5.90;;;;;;;4.98;55.44;95718.59;5067992;28;20049;-51
2021/04/26 06:21:06;;;;;;;10.35;5.25;;;;;;;4.99;55.56;95723.63;5064697;28;20040;-49
2021/04/26 06:23:33;;;;;;;10.30;6.15;;;;;;;5.13;55.54;95715.53;5085852;28;20466;-52
2021/04/26 06:26:00;;;;;;;10.63;5.88;;;;;;;5.13;55.52;95707.50;5069553;28;20068;-51
2021/04/26 06:28:27;;;;;;;10.77;5.95;;;;;;;5.13;55.82;95712.88;5068253;28;20588;-51
2021/04/26 06:30:54;;;;;;;11.52;5.85;;;;;;;5.37;55.73;95708.03;5066057;28;20138;-48
2021/04/26 06:33:20;;;;;;;11.48;5.88;;;;;;;5.56;54.14;95715.13;5066865;28;20139;-54
2021/04/26 06:35:52;;;;;;;12.88;6.38;;;;;;;5.83;52.89;95706.91;5068070;28;20075;-53
2021/04/26 06:38:20;;;;;;;14.93;5.93;;;;;;;5.59;54.87;95711.81;5067494;28;20118;-53
2021/04/26 06:40:47;;;;;;;14.32;6.50;;;;;;;5.51;54.98;95712.53;5060398;28;20569;-51
2021/04/26 06:43:15;;;;;;;11.50;6.28;;;;;;;5.47;53.63;95709.69;5060951;28;20076;-49
2021/04/26 06:45:43;;;;;;;9.75;6.35;;;;;;;5.65;53.57;95705.22;5050854;28;20044;-56
2021/04/26 06:48:13;;;;;;;12.38;6.30;;;;;;;5.79;53.49;95702.47;5066944;28;20037;-55
2021/04/26 06:50:40;;;;;;;10.30;5.70;;;;;;;5.85;52.84;95693.19;5067005;28;20071;-52
2021/04/26 06:53:07;;;;;;;9.70;5.30;;;;;;;5.91;52.79;95694.63;5066912;28;20053;-45
2021/04/26 06:55:33;;;;;;;9.20;5.32;;;;;;;6.09;52.84;95700.94;5065571;28;20052;-46
2021/04/26 06:58:01;;;;;;;10.35;5.95;;;;;;;6.24;52.33;95711.28;5064639;28;20064;-50
2021/04/26 07:00:28;;;;;;;11.95;6.72;;;;;;;6.51;53.23;95701.41;5058532;28;20045;-50
2021/04/26 07:02:56;;;;;;;9.52;5.53;;;;;;;6.68;52.01;95706.03;5053204;28;20049;-53
2021/04/26 07:05:23;;;;;;;9.07;5.88;;;;;;;6.69;51.78;95703.03;5061717;28;20045;-52
2021/04/26 07:07:49;;;;;;;10.55;5.38;;;;;;;6.95;50.84;95710.38;5058309;28;20041;-49
2021/04/26 07:10:17;;;;;;;10.13;5.25;;;;;;;6.89;50.98;95708.91;5065268;28;20043;-52
2021/04/26 07:12:44;;;;;;;11.43;5.50;;;;;;;6.81;50.78;95713.19;5039816;28;20053;-51
2021/04/26 07:15:12;;;;;;;9.90;5.93;;;;;;;6.78;50.36;95706.53;5033626;28;20524;-50
2021/04/26 07:17:39;;;;;;;10.30;5.75;;;;;;;6.86;51.09;95706.84;5050313;28;20150;-49
2021/04/26 07:20:09;;;;;;;9.98;5.50;;;;;;;6.80;50.65;95708.94;5043599;28;20064;-52
2021/04/26 07:22:37;;;;;;;9.88;5.75;;;;;;;6.76;50.55;95706.06;5045969;28;20060;-52
2021/04/26 07:25:05;;;;;;;8.52;5.55;;;;;;;6.91;50.98;95715.56;5051614;28;20049;-50
2021/04/26 07:27:32;;;;;;;12.40;6.10;;;;;;;7.03;49.82;95715.75;5041550;28;20053;-50
2021/04/26 07:29:59;;;;;;;17.15;5.97;;;;;;;7.06;51.36;95706.28;5034145;28;20096;-51
2021/04/26 07:32:26;;;;;;;9.25;5.75;;;;;;;6.85;51.62;95706.06;5051785;28;20122;-53
2021/04/26 07:34:52;;;;;;;10.63;5.38;;;;;;;7.00;50.32;95705.63;5051469;28;20126;-51
2021/04/26 07:37:20;;;;;;;11.82;6.00;;;;;;;7.06;50.50;95700.91;5050618;28;20041;-51
2021/04/26 07:39:46;;;;;;;10.60;6.78;;;;;;;7.17;50.11;95701.38;5045769;28;20041;-52
2021/04/26 07:42:14;;;;;;;10.38;5.72;;;;;;;7.06;50.76;95703.59;5042701;28;20036;-52
2021/04/26 07:44:41;;;;;;;9.93;5.75;;;;;;;7.07;50.12;95699.78;5045293;28;20570;-51
2021/04/26 07:47:09;;;;;;;9.68;5.63;;;;;;;7.13;52.32;95703.91;5048385;28;20045;-52
2021/04/26 07:49:36;;;;;;;8.48;5.80;;;;;;;7.29;49.55;95703.44;5052052;28;20686;-49
2021/04/26 07:52:22;;;;;;;8.25;5.65;;;;;;;7.26;50.60;95711.03;5042510;28;20065;-52
2021/04/26 07:54:49;;;;;;;9.95;5.95;;;;;;;7.54;49.33;95710.72;5046983;28;20126;-51
2021/04/26 07:57:15;;;;;;;12.88;5.60;;;;;;;7.63;48.09;95716.88;5053269;28;20391;-52
2021/04/26 08:00:00;;;;;;;10.90;5.95;;;;;;;7.83;48.38;95710.06;5058691;28;20044;-51
2021/04/26 08:02:47;;;;;;;13.00;6.00;;;;;;;7.87;49.45;95721.00;5003585;28;20057;-52
2021/04/26 08:05:34;;;;;;;9.13;5.38;;;;;;;7.88;47.62;95717.19;4991286;28;20057;-52
2021/04/26 08:08:22;;;;;;;10.40;5.53;;;;;;;7.96;48.69;95713.66;4980739;28;20065;-52
2021/04/26 08:11:09;;;;;;;13.60;5.80;;;;;;;8.04;47.61;95714.78;5041989;28;20081;-52
2021/04/26 08:13:56;;;;;;;6.90;5.45;;;;;;;8.24;47.90;95715.97;5017056;28;20066;-51
2021/04/26 08:16:43;;;;;;;10.15;5.43;;;;;;;8.22;46.11;95718.19;5011214;28;20053;-48
2021/04/26 08:19:30;;;;;;;9.02;5.45;;;;;;;8.26;46.57;95711.06;4993799;28;20072;-48
2021/04/26 08:22:17;;;;;;;7.85;5.10;;;;;;;8.44;46.33;95712.59;5016571;28;20060;-48
2021/04/26 08:25:04;;;;;;;9.60;5.22;;;;;;;8.43;46.88;95708.31;5016646;28;20057;-51
2021/04/26 08:27:51;;;;;;;8.20;5.40;;;;;;;8.67;45.46;95718.53;5003950;28;20058;-48
2021/04/26 08:30:39;;;;;;;10.43;5.72;;;;;;;8.75;45.73;95704.22;4992946;28;20053;-49
2021/04/26 08:33:26;;;;;;;9.65;5.78;;;;;;;8.76;44.74;95705.00;5009292;28;20052;-52
2021/04/26 08:36:13;;;;;;;8.95;5.72;;;;;;;8.65;45.12;95699.19;4993166;28;20111;-52
2021/04/26 08:39:00;;;;;;;12.25;6.00;;;;;;;8.71;45.01;95702.47;5018899;28;20064;-52
2021/04/26 08:41:47;;;;;;;8.77;5.50;;;;;;;9.00;43.82;95699.78;5009758;28;20044;-54
2021/04/26 08:44:34;;;;;;;8.98;5.25;;;;;;;9.23;43.53;95697.56;5001473;28;20056;-52
2021/04/26 08:47:23;;;;;;;9.45;5.28;;;;;;;9.09;44.01;95697.81;5033876;28;20095;-53
2021/04/26 08:50:10;;;;;;;7.90;5.28;;;;;;;9.05;44.27;95706.88;5022282;28;20057;-51
2021/04/26 08:52:57;;;;;;;9.48;5.50;;;;;;;9.25;42.93;95706.09;4990192;28;20094;-49
2021/04/26 08:55:44;;;;;;;20.92;6.47;;;;;;;9.35;43.35;95703.00;5006304;28;20076;-53
2021/04/26 08:58:30;;;;;;;8.77;5.20;;;;;;;9.25;43.24;95705.31;5016799;28;20053;-54
2021/04/26 09:01:17;;;;;;;8.73;5.85;;;;;;;9.51;43.27;95703.22;5006440;28;20057;-53
2021/04/26 09:03:46;;;;;;;9.55;5.10;;;;;;;9.39;43.75;95700.44;5030815;28;20083;-51
2021/04/26 09:06:12;;;;;;;7.88;5.22;;;;;;;9.62;41.89;95690.09;5031390;28;20060;-54
2021/04/26 09:08:49;;;;;;;11.68;5.72;;;;;;;9.90;41.32;95701.09;5041013;28;20049;-51
2021/04/26 09:11:17;;;;;;;7.85;4.45;;;;;;;10.00;40.04;95697.97;5050479;28;20037;-53
2021/04/26 09:13:47;;;;;;;10.80;4.95;;;;;;;10.21;38.54;95697.94;5040439;28;20115;-54
2021/04/26 09:16:25;;;;;;;9.85;5.07;;;;;;;10.07;38.61;95689.31;5036024;28;20059;-53
2021/04/26 09:19:00;;;;;;;8.80;4.70;;;;;;;10.18;40.09;95687.00;5030617;28;20053;-54
2021/04/26 09:21:30;;;;;;;8.52;4.88;;;;;;;10.22;40.25;95693.31;5041216;28;20072;-53
2021/04/26 09:24:26;;;;;;;10.80;5.00;;;;;;;10.35;39.79;95694.94;5051250;28;20045;-51
2021/04/26 09:27:05;;;;;;;7.32;4.38;;;;;;;10.47;38.25;95688.75;5050129;28;20096;-53
2021/04/26 09:29:33;;;;;;;9.02;4.75;;;;;;;10.51;38.31;95687.75;5049308;28;20055;-54
2021/04/26 09:32:02;;;;;;;9.57;5.05;;;;;;;10.52;39.65;95697.41;5050668;28;20057;-50
2021/04/26 09:34:35;;;;;;;7.63;5.00;;;;;;;10.64;40.22;95693.16;5049321;28;20152;-51
2021/04/26 09:37:23;;;;;;;8.98;4.55;;;;;;;10.55;37.78;95679.72;5031642;28;20776;-52
2021/04/26 09:40:11;;;;;;;9.60;4.30;;;;;;;10.78;37.12;95680.06;5046384;28;20049;-52
2021/04/26 09:42:59;;;;;;;7.65;4.28;;;;;;;10.94;36.44;95683.66;5039606;28;20069;-53
2021/04/26 09:45:40;;;;;;;8.98;4.38;;;;;;;10.93;35.81;95678.59;5042999;28;20395;-49
2021/04/26 09:48:15;;;;;;;6.68;4.43;;;;;;;11.15;35.92;95674.63;5051156;28;20053;-51
2021/04/26 09:50:57;;;;;;;9.77;5.30;;;;;;;10.67;36.22;95673.53;5049493;28;20376;-51
2021/04/26 09:53:26;;;;;;;6.63;4.65;;;;;;;10.43;39.04;95675.13;5043690;28;20057;-54
2021/04/26 09:55:55;;;;;;;6.88;4.30;;;;;;;10.56;37.04;95681.31;5050954;28;20048;-49
2021/04/26 09:58:23;;;;;;;11.23;4.35;;;;;;;10.58;37.22;95679.06;5050697;28;20063;-51
2021/04/26 10:00:51;;;;;;;6.18;4.63;;;;;;;10.56;39.19;95675.09;5044340;28;20073;-51
2021/04/26 10:03:18;;;;;;;5.30;3.78;;;;;;;10.95;36.19;95673.63;5045744;28;20053;-51
2021/04/26 10:05:47;;;;;;;8.02;3.72;;;;;;;11.25;34.83;95673.34;5030630;28;20136;-51
2021/04/26 10:08:15;;;;;;;8.85;3.95;;;;;;;11.07;33.28;95662.00;5031220;28;20080;-49
2021/04/26 10:10:45;;;;;;;6.72;4.07;;;;;;;11.16;32.85;95662.66;5035976;28;20037;-48
2021/04/26 10:13:13;;;;;;;8.10;4.97;;;;;;;11.22;34.00;95658.56;5042853;28;20038;-49
2021/04/26 10:15:41;;;;;;;6.55;4.10;;;;;;;11.34;34.09;95666.69;5043883;28;20045;-51
2021/04/26 10:18:11;;;;;;;7.30;4.22;;;;;;;11.52;34.91;95660.97;5050890;28;20117;-50
2021/04/26 10:20:43;;;;;;;5.80;3.80;;;;;;;11.27;34.04;95663.72;5050202;28;20508;-52
2021/04/26 10:23:39;;;;;;;6.53;4.05;;;;;;;11.21;31.92;95648.84;5037747;28;20053;-53
2021/04/26 10:26:41;;;;;;;8.80;4.65;;;;;;;11.28;33.93;95649.09;5031258;28;20124;-53
2021/04/26 10:29:17;;;;;;;9.32;4.70;;;;;;;11.20;32.92;95648.06;5030489;28;20053;-51
2021/04/26 10:32:11;;;;;;;8.93;4.53;;;;;;;11.51;32.99;95646.63;5031373;28;20049;-49
2021/04/26 10:34:41;;;;;;;12.15;4.35;;;;;;;11.68;33.75;95645.53;5027594;28;20107;-50
2021/04/26 10:37:15;;;;;;;12.07;4.53;;;;;;;11.48;35.62;95647.31;5051333;28;20388;-52
2021/04/26 10:40:01;;;;;;;7.97;4.75;;;;;;;11.71;35.75;95639.44;5030944;28;20054;-51
2021/04/26 10:42:42;;;;;;;8.35;4.75;;;;;;;11.95;34.16;95630.41;5028925;28;20054;-50
2021/04/26 10:45:13;;;;;;;9.35;4.75;;;;;;;12.10;33.67;95626.91;5040824;28;20081;-50
2021/04/26 10:47:41;;;;;;;9.73;4.30;;;;;;;12.46;33.88;95621.59;5053061;28;20079;-50
2021/04/26 10:50:12;;;;;;;6.85;4.43;;;;;;;12.23;34.69;95624.91;5052795;28;20103;-51
2021/04/26 10:52:40;;;;;;;8.25;4.18;;;;;;;12.51;33.65;95615.88;5053506;28;20107;-49
2021/04/26 10:55:11;;;;;;;12.63;5.10;;;;;;;12.62;31.90;95611.50;5053146;28;20077;-50
2021/04/26 10:57:41;;;;;;;7.63;4.10;;;;;;;12.49;32.54;95612.75;5041713;28;20080;-49
2021/04/26 11:00:22;;;;;;;6.20;3.97;;;;;;;13.08;31.25;95609.00;5037496;28;20636;-51
2021/04/26 11:02:55;;;;;;;9.60;4.70;;;;;;;12.86;30.08;95610.47;5053188;28;20453;-49
2021/04/26 11:05:24;;;;;;;8.32;3.95;;;;;;;13.09;31.06;95605.13;5052614;28;20060;-51
2021/04/26 11:08:13;;;;;;;8.60;4.75;;;;;;;13.28;30.61;95607.91;5048985;28;20406;-52
2021/04/26 11:10:50;;;;;;;6.45;3.97;;;;;;;13.56;30.15;95601.47;5033992;28;20141;-52
2021/04/26 11:13:32;;;;;;;9.90;4.90;;;;;;;15.31;27.43;95595.31;5043232;28;20048;-50
2021/04/26 11:16:11;;;;;;;6.88;4.03;;;;;;;17.60;24.22;95597.94;5052498;28;20139;-54
2021/04/26 11:18:40;;;;;;;7.32;4.32;;;;;;;17.67;22.45;95589.75;5048829;28;20083;-48
2021/04/26 11:21:09;;;;;;;5.65;3.90;;;;;;;17.77;22.65;95585.50;5033915;28;20049;-52
2021/04/26 11:23:52;;;;;;;6.57;3.80;;;;;;;17.32;22.85;95587.66;5039689;28;20397;-54
2021/04/26 11:26:24;;;;;;;6.82;4.38;;;;;;;19.33;22.13;95585.84;5061597;28;20073;-49
2021/04/26 11:29:02;;;;;;;10.75;4.47;;;;;;;18.30;21.40;95592.25;5047649;28;20118;-47
2021/04/26 11:31:41;;;;;;;7.00;4.15;;;;;;;19.28;23.37;95586.28;5044921;28;20045;-52
2021/04/26 11:34:08;;;;;;;8.57;4.32;;;;;;;20.26;19.00;95582.66;5043560;28;20053;-49
2021/04/26 11:36:38;;;;;;;10.75;3.92;;;;;;;17.73;22.48;95581.94;5033282;28;20573;-50
2021/04/26 11:39:09;;;;;;;6.63;3.80;;;;;;;19.36;20.32;95585.84;5033625;28;20060;-50
2021/04/26 11:41:44;;;;;;;5.47;3.70;;;;;;;18.48;21.68;95584.03;5032295;28;20049;-49
2021/04/26 11:44:13;;;;;;;6.60;3.90;;;;;;;18.85;21.01;95576.19;5045609;28;20040;-49
2021/04/26 11:46:40;;;;;;;8.77;4.63;;;;;;;18.34;20.56;95571.91;5045518;28;20045;-50
2021/04/26 11:49:21;;;;;;;7.43;4.00;;;;;;;18.08;23.07;95569.53;5053551;28;20068;-47
2021/04/26 11:51:51;;;;;;;6.50;3.88;;;;;;;18.35;21.33;95565.25;5043145;28;20042;-49
2021/04/26 11:54:23;;;;;;;7.00;4.50;;;;;;;19.23;18.13;95557.28;5065075;28;20102;-52
2021/04/26 11:57:22;;;;;;;6.65;4.15;;;;;;;18.64;20.33;95562.47;5053900;28;20045;-50
2021/04/26 11:59:59;;;;;;;8.27;4.05;;;;;;;19.94;19.70;95553.44;5046135;28;20052;-47
2021/04/26 12:02:27;;;;;;;5.00;3.60;;;;;;;18.72;20.41;95546.81;5048695;28;20467;-50
2021/04/26 12:04:57;;;;;;;5.07;3.63;;;;;;;19.08;19.32;95547.56;5054021;28;20098;-52
2021/04/26 12:07:24;;;;;;;5.40;3.58;;;;;;;19.13;19.71;95549.88;5053912;28;20487;-50
2021/04/26 12:09:55;;;;;;;7.05;4.00;;;;;;;19.29;18.55;95552.16;5053092;28;20505;-50
2021/04/26 12:12:25;;;;;;;8.57;4.40;;;;;;;20.00;17.57;95542.81;5053855;28;20110;-48
2021/04/26 12:14:55;;;;;;;6.07;3.85;;;;;;;20.47;18.16;95545.97;5036054;28;20427;-51
2021/04/26 12:17:28;;;;;;;5.65;4.22;;;;;;;18.55;18.72;95545.66;5045721;28;20045;-51
2021/04/26 12:19:55;;;;;;;5.78;3.70;;;;;;;19.56;20.12;95541.47;5054982;28;20045;-52
2021/04/26 12:22:23;;;;;;;8.20;4.85;;;;;;;19.51;20.18;95544.63;5050552;28;20162;-53
2021/04/26 12:24:52;;;;;;;7.13;3.70;;;;;;;20.74;17.27;95538.69;5053378;28;20421;-50
2021/04/26 12:27:24;;;;;;;6.55;4.47;;;;;;;20.17;17.22;95538.38;5049645;28;20060;-50
2021/04/26 12:29:51;;;;;;;7.07;4.13;;;;;;;19.42;20.02;95538.78;5026198;28;20041;-49
2021/04/26 12:32:22;;;;;;;6.60;4.25;;;;;;;19.65;19.11;95527.34;5042729;28;20052;-53
2021/04/26 12:34:50;;;;;;;6.95;4.03;;;;;;;18.60;19.61;95534.31;5040730;28;20665;-51
2021/04/26 12:37:19;;;;;;;6.40;4.10;;;;;;;19.41;19.72;95526.25;5051847;28;20091;-51